createdAt,value
2018-03-31T00:00:58.305Z,4.83
2018-03-31T00:03:24.348Z,4.63
2018-03-31T00:05:50.391Z,4.04
2018-03-31T00:08:16.556Z,4.26
2018-03-31T00:10:42.603Z,3.99
2018-03-31T00:13:08.757Z,4.03
2018-03-31T00:15:34.789Z,4.37
2018-03-31T00:18:01.604Z,4.58
2018-03-31T00:20:27.684Z,4.62
2018-03-31T00:22:53.711Z,4.80
2018-03-31T00:25:19.758Z,4.79
2018-03-31T00:27:45.855Z,4.94
2018-03-31T00:30:12.014Z,4.94
2018-03-31T00:32:38.997Z,4.92
2018-03-31T00:35:05.029Z,4.80
2018-03-31T00:37:31.113Z,4.75
2018-03-31T00:39:57.180Z,4.86
2018-03-31T00:42:23.417Z,4.96
2018-03-31T00:44:49.611Z,5.03
2018-03-31T00:47:15.665Z,5.06
2018-03-31T00:49:41.691Z,5.06
2018-03-31T00:52:07.800Z,5.06
2018-03-31T00:54:33.847Z,4.88
2018-03-31T00:56:59.974Z,4.87
2018-03-31T00:59:26.040Z,4.63
2018-03-31T01:01:52.068Z,4.37
2018-03-31T01:04:18.144Z,3.72
2018-03-31T01:06:44.186Z,3.57
2018-03-31T01:09:10.220Z,3.71
2018-03-31T01:11:36.308Z,3.89
2018-03-31T01:14:02.344Z,3.98
2018-03-31T01:16:28.366Z,4.00
2018-03-31T01:18:54.561Z,4.01
2018-03-31T01:21:20.621Z,3.66
2018-03-31T01:23:46.675Z,3.88
2018-03-31T01:26:12.747Z,4.08
2018-03-31T01:28:38.915Z,3.88
2018-03-31T01:31:04.960Z,3.86
2018-03-31T01:33:31.104Z,3.72
2018-03-31T01:35:57.490Z,3.76
2018-03-31T01:38:23.500Z,3.92
2018-03-31T01:40:49.525Z,4.04
2018-03-31T01:43:16.497Z,3.88
2018-03-31T01:45:42.549Z,4.04
2018-03-31T01:48:08.605Z,4.11
2018-03-31T01:50:34.772Z,4.26
2018-03-31T01:53:00.830Z,4.28
2018-03-31T01:55:26.926Z,4.21
2018-03-31T01:57:52.959Z,4.22
2018-03-31T02:00:18.993Z,4.25
2018-03-31T02:02:45.172Z,3.89
2018-03-31T02:05:11.205Z,3.93
2018-03-31T02:07:37.220Z,3.95
2018-03-31T02:10:03.449Z,3.47
2018-03-31T02:12:29.705Z,3.49
2018-03-31T02:14:55.789Z,3.62
2018-03-31T02:17:21.911Z,3.53
2018-03-31T02:19:50.923Z,3.47
2018-03-31T02:22:16.972Z,3.56
2018-03-31T02:24:43.063Z,3.73
2018-03-31T02:27:10.940Z,3.36
2018-03-31T02:29:37.145Z,3.29
2018-03-31T02:32:03.200Z,3.63
2018-03-31T02:34:29.225Z,3.76
2018-03-31T02:36:55.306Z,3.82
2018-03-31T02:39:21.342Z,3.92
2018-03-31T02:41:47.366Z,3.81
2018-03-31T02:44:16.701Z,3.61
2018-03-31T02:46:42.859Z,3.62
2018-03-31T02:49:08.903Z,3.46
2018-03-31T02:51:34.949Z,3.55
2018-03-31T02:54:01.052Z,3.59
2018-03-31T02:56:27.136Z,3.42
2018-03-31T02:58:53.214Z,3.54
2018-03-31T03:01:19.342Z,3.59
2018-03-31T03:03:45.387Z,3.51
2018-03-31T03:06:11.789Z,3.42
2018-03-31T03:08:37.816Z,3.36
2018-03-31T03:11:03.840Z,3.48
2018-03-31T03:13:29.937Z,3.61
2018-03-31T03:15:55.974Z,3.61
2018-03-31T03:18:22.055Z,3.75
2018-03-31T03:20:51.485Z,3.78
2018-03-31T03:23:17.526Z,3.85
2018-03-31T03:25:43.603Z,3.45
2018-03-31T03:28:09.685Z,3.47
2018-03-31T03:30:35.884Z,3.36
2018-03-31T03:33:01.924Z,3.46
2018-03-31T03:35:27.957Z,3.70
2018-03-31T03:37:54.023Z,3.77
2018-03-31T03:40:20.060Z,3.80
2018-03-31T03:42:46.936Z,3.81
2018-03-31T03:45:13.289Z,3.78
2018-03-31T03:47:39.384Z,3.74
2018-03-31T03:50:05.416Z,3.81
2018-03-31T03:52:31.666Z,3.88
2018-03-31T03:54:57.721Z,3.63
2018-03-31T03:57:23.763Z,3.57
2018-03-31T03:59:49.903Z,3.73
2018-03-31T04:02:15.944Z,3.82
2018-03-31T04:04:41.997Z,3.47
2018-03-31T04:07:08.326Z,3.12
2018-03-31T04:09:34.421Z,3.25
2018-03-31T04:12:00.561Z,3.18
2018-03-31T04:14:26.602Z,3.45
2018-03-31T04:16:52.674Z,3.65
2018-03-31T04:19:18.825Z,3.34
2018-03-31T04:21:44.905Z,3.33
2018-03-31T04:24:10.979Z,3.53
2018-03-31T04:26:37.036Z,3.52
2018-03-31T04:29:03.112Z,3.57
2018-03-31T04:31:29.164Z,3.67
2018-03-31T04:33:55.326Z,3.74
2018-03-31T04:36:21.418Z,3.69
2018-03-31T04:38:47.497Z,3.36
2018-03-31T04:41:13.740Z,3.69
2018-03-31T04:43:40.715Z,3.87
2018-03-31T04:46:06.966Z,4.26
2018-03-31T04:48:33.120Z,4.33
2018-03-31T04:50:59.236Z,4.26
2018-03-31T04:53:25.312Z,4.06
2018-03-31T04:55:51.430Z,3.99
2018-03-31T04:58:17.541Z,3.89
2018-03-31T05:00:43.614Z,4.11
2018-03-31T05:03:09.945Z,4.19
2018-03-31T05:05:36.075Z,4.34
2018-03-31T05:08:02.351Z,4.39
2018-03-31T05:10:28.660Z,4.28
2018-03-31T05:12:54.772Z,4.14
2018-03-31T05:15:20.926Z,3.57
2018-03-31T05:17:47.029Z,3.82
2018-03-31T05:20:13.170Z,4.13
2018-03-31T05:22:39.255Z,4.27
2018-03-31T05:25:05.359Z,3.84
2018-03-31T05:27:31.570Z,4.14
2018-03-31T05:29:57.716Z,4.28
2018-03-31T05:32:23.961Z,4.51
2018-03-31T05:34:50.126Z,4.79
2018-03-31T05:37:16.300Z,4.95
2018-03-31T05:39:42.516Z,5.04
2018-03-31T05:45:11.273Z,5.17
2018-03-31T05:47:37.468Z,5.25
2018-03-31T05:50:03.583Z,5.18
2018-03-31T05:52:29.851Z,5.08
2018-03-31T05:54:55.933Z,5.38
2018-03-31T05:57:22.010Z,5.49
2018-03-31T05:59:48.214Z,5.69
2018-03-31T06:02:14.726Z,5.90
2018-03-31T06:04:40.994Z,6.04
2018-03-31T06:07:07.305Z,6.26
2018-03-31T06:09:33.369Z,6.25
2018-03-31T06:11:59.593Z,6.44
2018-03-31T06:14:26.150Z,6.25
2018-03-31T06:16:52.372Z,6.52
2018-03-31T06:19:18.549Z,6.73
2018-03-31T06:21:44.717Z,6.75
2018-03-31T06:24:10.812Z,6.91
2018-03-31T06:26:37.033Z,6.95
2018-03-31T06:29:03.181Z,7.26
2018-03-31T06:31:29.219Z,7.58
2018-03-31T06:33:58.529Z,7.64
2018-03-31T06:36:24.604Z,6.71
2018-03-31T06:38:50.697Z,6.51
2018-03-31T06:41:16.914Z,6.36
2018-03-31T06:43:43.102Z,6.77
2018-03-31T06:46:09.357Z,6.98
2018-03-31T06:48:35.494Z,7.04
2018-03-31T06:51:01.622Z,6.98
2018-03-31T06:53:27.822Z,7.19
2018-03-31T06:55:54.009Z,7.34
2018-03-31T06:58:20.115Z,7.57
2018-03-31T07:00:46.268Z,7.79
2018-03-31T07:03:12.585Z,7.90
2018-03-31T07:05:38.704Z,8.63
2018-03-31T07:08:04.756Z,9.34
2018-03-31T07:10:30.864Z,9.90
2018-03-31T07:12:56.978Z,9.79
2018-03-31T07:15:23.020Z,9.55
2018-03-31T07:17:49.200Z,9.62
2018-03-31T07:20:15.362Z,9.73
2018-03-31T07:22:41.487Z,9.61
2018-03-31T07:25:07.576Z,9.58
2018-03-31T07:27:33.698Z,9.50
2018-03-31T07:29:59.856Z,9.12
2018-03-31T07:32:26.023Z,9.35
2018-03-31T07:34:52.230Z,9.06
2018-03-31T07:37:18.415Z,9.24
2018-03-31T07:39:44.588Z,9.66
2018-03-31T07:42:10.690Z,9.61
2018-03-31T07:44:37.106Z,9.80
2018-03-31T07:47:05.667Z,10.11
2018-03-31T07:49:31.862Z,10.06
2018-03-31T07:51:58.024Z,10.13
2018-03-31T07:54:24.117Z,10.28
2018-03-31T07:56:50.325Z,10.29
2018-03-31T07:59:16.473Z,10.27
2018-03-31T08:01:42.804Z,10.04
2018-03-31T08:04:08.906Z,10.38
2018-03-31T08:06:35.094Z,11.06
2018-03-31T08:09:01.266Z,11.28
2018-03-31T08:11:27.492Z,11.40
2018-03-31T08:13:53.782Z,11.22
2018-03-31T08:16:19.918Z,11.30
2018-03-31T08:18:46.010Z,11.88
2018-03-31T08:21:12.126Z,12.09
2018-03-31T08:23:38.232Z,12.27
2018-03-31T08:26:04.393Z,12.16
2018-03-31T08:28:30.517Z,12.18
2018-03-31T08:30:56.602Z,12.50
2018-03-31T08:33:22.733Z,12.33
2018-03-31T08:35:51.524Z,12.41
2018-03-31T08:38:17.636Z,12.76
2018-03-31T08:40:43.865Z,13.15
2018-03-31T08:43:09.971Z,13.23
2018-03-31T08:45:36.136Z,13.29
2018-03-31T08:48:02.240Z,13.18
2018-03-31T08:50:28.288Z,13.47
2018-03-31T08:52:54.458Z,13.44
2018-03-31T08:55:20.624Z,14.30
2018-03-31T08:57:46.674Z,13.43
2018-03-31T09:00:12.733Z,13.46
2018-03-31T09:02:38.900Z,13.44
2018-03-31T09:05:04.949Z,13.92
2018-03-31T09:07:30.980Z,14.47
2018-03-31T09:09:57.134Z,14.46
2018-03-31T09:12:23.181Z,14.59
2018-03-31T09:14:49.261Z,15.08
2018-03-31T09:17:15.300Z,15.51
2018-03-31T09:19:41.397Z,15.84
2018-03-31T09:22:07.602Z,15.89
2018-03-31T09:24:33.659Z,14.84
2018-03-31T09:26:59.845Z,14.55
2018-03-31T09:29:25.888Z,14.65
2018-03-31T09:31:52.142Z,15.00
2018-03-31T09:34:21.272Z,15.13
2018-03-31T09:36:47.330Z,15.47
2018-03-31T09:39:13.394Z,15.35
2018-03-31T09:41:39.554Z,15.39
2018-03-31T09:44:05.590Z,15.12
2018-03-31T09:46:31.757Z,15.33
2018-03-31T09:48:57.833Z,15.40
2018-03-31T09:51:23.932Z,14.88
2018-03-31T09:53:50.342Z,14.68
2018-03-31T09:56:16.591Z,15.02
2018-03-31T09:58:42.686Z,14.67
2018-03-31T10:01:08.894Z,14.03
2018-03-31T10:03:34.941Z,14.09
2018-03-31T10:06:04.102Z,14.33
2018-03-31T10:08:30.168Z,14.31
2018-03-31T10:10:56.434Z,14.32
2018-03-31T10:13:22.668Z,14.43
2018-03-31T10:15:48.738Z,14.29
2018-03-31T10:18:14.818Z,14.30
2018-03-31T10:20:40.922Z,14.29
2018-03-31T10:23:07.002Z,14.14
2018-03-31T10:25:33.048Z,14.20
2018-03-31T10:27:59.256Z,14.04
2018-03-31T10:30:25.291Z,14.13
2018-03-31T10:32:51.416Z,14.50
2018-03-31T10:35:17.596Z,14.95
2018-03-31T10:37:43.685Z,15.32
2018-03-31T10:40:09.774Z,15.36
2018-03-31T10:42:35.897Z,15.18
2018-03-31T10:45:01.944Z,15.39
2018-03-31T10:47:28.040Z,15.62
2018-03-31T10:49:54.181Z,15.92
2018-03-31T10:52:20.280Z,16.59
2018-03-31T10:54:46.326Z,16.86
2018-03-31T10:57:12.536Z,17.38
2018-03-31T10:59:38.604Z,17.55
2018-03-31T11:02:04.801Z,17.85
2018-03-31T11:04:30.847Z,18.16
2018-03-31T11:06:56.891Z,18.12
2018-03-31T11:09:23.063Z,17.71
2018-03-31T11:11:49.113Z,17.73
2018-03-31T11:14:19.097Z,17.58
2018-03-31T11:16:45.137Z,17.80
2018-03-31T11:19:11.164Z,18.03
2018-03-31T11:21:37.372Z,17.76
2018-03-31T11:24:03.478Z,18.15
2018-03-31T11:26:29.721Z,17.87
2018-03-31T11:28:55.753Z,18.13
2018-03-31T11:31:22.022Z,18.40
2018-03-31T11:33:48.072Z,17.97
2018-03-31T11:36:14.152Z,17.80
2018-03-31T11:38:40.269Z,18.29
2018-03-31T11:41:06.387Z,18.44
2018-03-31T11:43:32.538Z,18.61
2018-03-31T11:45:58.619Z,18.51
2018-03-31T11:48:24.681Z,19.04
2018-03-31T11:50:50.724Z,19.43
2018-03-31T11:53:16.957Z,19.14
2018-03-31T11:55:42.989Z,18.95
2018-03-31T11:58:09.062Z,19.13
2018-03-31T12:00:35.317Z,19.42
2018-03-31T12:03:01.372Z,19.61
2018-03-31T12:05:27.422Z,19.89
2018-03-31T12:07:53.525Z,19.67
2018-03-31T12:10:19.611Z,19.47
2018-03-31T12:12:45.641Z,19.69
2018-03-31T12:15:11.743Z,20.18
2018-03-31T12:17:37.893Z,20.73
2018-03-31T12:20:03.944Z,21.27
2018-03-31T12:22:29.998Z,20.92
2018-03-31T12:24:56.157Z,20.89
2018-03-31T12:27:22.293Z,20.43
2018-03-31T12:29:48.329Z,21.38
2018-03-31T12:32:14.473Z,22.18
2018-03-31T12:34:40.563Z,22.06
2018-03-31T12:37:06.689Z,22.00
2018-03-31T12:39:32.772Z,22.02
2018-03-31T12:41:58.996Z,22.04
2018-03-31T12:44:25.185Z,22.40
2018-03-31T12:46:51.253Z,22.61
2018-03-31T12:49:17.360Z,22.51
2018-03-31T12:51:43.478Z,22.51
2018-03-31T12:54:09.512Z,22.11
2018-03-31T12:56:35.724Z,22.27
2018-03-31T12:59:01.852Z,22.17
2018-03-31T13:01:27.976Z,22.78
2018-03-31T13:03:54.008Z,22.59
2018-03-31T13:06:20.112Z,22.28
2018-03-31T13:08:46.145Z,22.11
2018-03-31T13:11:12.233Z,21.96
2018-03-31T13:13:38.359Z,21.94
2018-03-31T13:16:05.206Z,21.83
2018-03-31T13:18:31.281Z,22.08
2018-03-31T13:20:57.415Z,22.34
2018-03-31T13:23:23.431Z,22.63
2018-03-31T13:25:49.477Z,22.88
2018-03-31T13:28:15.539Z,22.93
2018-03-31T13:30:41.573Z,22.91
2018-03-31T13:33:07.663Z,23.17
2018-03-31T13:35:33.820Z,23.35
2018-03-31T13:37:59.944Z,22.98
2018-03-31T13:40:26.136Z,23.58
2018-03-31T13:42:52.232Z,23.90
2018-03-31T13:45:18.294Z,23.78
2018-03-31T13:47:44.388Z,23.72
2018-03-31T13:50:12.157Z,23.41
2018-03-31T13:52:38.215Z,23.33
2018-03-31T13:55:04.265Z,23.36
2018-03-31T13:57:30.481Z,22.52
2018-03-31T13:59:56.582Z,22.83
2018-03-31T14:02:22.715Z,23.61
2018-03-31T14:04:48.739Z,24.00
2018-03-31T14:07:14.767Z,24.20
2018-03-31T14:09:40.857Z,24.75
2018-03-31T14:12:07.237Z,24.92
2018-03-31T14:14:33.369Z,25.57
2018-03-31T14:16:59.416Z,25.99
2018-03-31T14:19:25.585Z,26.54
2018-03-31T14:21:51.689Z,26.40
2018-03-31T14:24:17.754Z,26.64
2018-03-31T14:26:43.814Z,25.55
2018-03-31T14:29:09.904Z,25.69
2018-03-31T14:31:36.062Z,24.75
2018-03-31T14:34:02.155Z,24.27
2018-03-31T14:36:28.449Z,25.43
2018-03-31T14:38:54.532Z,25.74
2018-03-31T14:41:20.606Z,24.67
2018-03-31T14:43:46.833Z,23.79
2018-03-31T14:46:13.103Z,23.63
2018-03-31T14:48:39.160Z,24.49
2018-03-31T14:51:05.236Z,24.80
2018-03-31T14:53:31.301Z,23.80
2018-03-31T14:55:57.395Z,22.52
2018-03-31T14:58:23.645Z,21.86
2018-03-31T15:00:49.726Z,20.63
2018-03-31T15:03:15.818Z,19.98
2018-03-31T15:05:41.973Z,19.55
2018-03-31T15:08:08.080Z,19.07
2018-03-31T15:10:34.137Z,18.82
2018-03-31T15:13:00.223Z,18.54
2018-03-31T15:15:27.195Z,18.75
2018-03-31T15:17:53.223Z,18.44
2018-03-31T15:20:19.388Z,18.36
2018-03-31T15:22:45.581Z,18.15
2018-03-31T15:25:11.962Z,17.84
2018-03-31T15:27:38.215Z,17.62
2018-03-31T15:30:04.332Z,17.60
2018-03-31T15:32:30.396Z,17.42
2018-03-31T15:34:56.502Z,17.29
2018-03-31T15:37:22.674Z,17.28
2018-03-31T15:39:48.712Z,17.05
2018-03-31T15:42:14.780Z,16.92
2018-03-31T15:44:40.933Z,16.74
2018-03-31T15:47:06.972Z,16.56
2018-03-31T15:49:33.022Z,16.57
2018-03-31T15:51:59.501Z,16.33
2018-03-31T15:54:25.794Z,16.27
2018-03-31T15:56:51.912Z,16.42
2018-03-31T15:59:18.293Z,16.26
2018-03-31T16:01:44.393Z,16.33
2018-03-31T16:04:10.401Z,16.31
2018-03-31T16:06:36.565Z,16.16
2018-03-31T16:09:02.746Z,16.07
2018-03-31T16:11:28.780Z,15.92
2018-03-31T16:13:56.723Z,15.94
2018-03-31T16:16:23.352Z,15.87
2018-03-31T16:18:49.384Z,15.76
2018-03-31T16:21:15.494Z,15.76
2018-03-31T16:23:41.589Z,15.67
2018-03-31T16:26:09.139Z,15.53
2018-03-31T16:28:35.871Z,15.46
2018-03-31T16:31:01.902Z,15.37
2018-03-31T16:33:27.976Z,15.47
2018-03-31T16:35:54.157Z,15.36
2018-03-31T16:38:20.187Z,15.22
2018-03-31T16:40:46.261Z,15.15
2018-03-31T16:43:12.398Z,15.14
2018-03-31T16:45:38.545Z,15.15
2018-03-31T16:48:04.707Z,15.07
2018-03-31T16:50:30.821Z,15.07
2018-03-31T16:52:57.005Z,15.08
2018-03-31T16:55:23.136Z,15.00
2018-03-31T16:57:49.232Z,14.95
2018-03-31T17:00:15.656Z,14.94
2018-03-31T17:02:41.751Z,14.91
2018-03-31T17:05:07.917Z,14.92
2018-03-31T17:07:34.000Z,14.81
2018-03-31T17:10:00.070Z,14.85
2018-03-31T17:12:26.119Z,14.79
2018-03-31T17:14:52.361Z,14.72
2018-03-31T17:17:18.405Z,14.72
2018-03-31T17:19:44.466Z,14.61
2018-03-31T17:22:11.054Z,14.62
2018-03-31T17:24:37.136Z,14.49
2018-03-31T17:27:03.229Z,14.35
2018-03-31T17:29:29.289Z,14.25
2018-03-31T17:31:55.470Z,14.22
2018-03-31T17:34:21.569Z,14.08
2018-03-31T17:36:47.626Z,13.97
2018-03-31T17:39:13.793Z,13.89
2018-03-31T17:41:39.809Z,13.84
2018-03-31T17:44:05.914Z,13.68
2018-03-31T17:46:31.954Z,13.61
2018-03-31T17:48:58.092Z,13.53
2018-03-31T17:51:24.221Z,13.47
2018-03-31T17:53:50.236Z,13.41
2018-03-31T17:56:16.275Z,13.37
2018-03-31T17:58:42.418Z,13.35
2018-03-31T18:01:08.498Z,13.32
2018-03-31T18:03:34.556Z,13.27
2018-03-31T18:06:00.573Z,13.24
2018-03-31T18:08:26.598Z,13.17
2018-03-31T18:10:52.676Z,13.12
2018-03-31T18:13:18.708Z,13.09
2018-03-31T18:15:44.933Z,13.01
2018-03-31T18:18:10.998Z,13.04
2018-03-31T18:20:40.034Z,13.00
2018-03-31T18:23:06.176Z,12.87
2018-03-31T18:25:32.212Z,12.79
2018-03-31T18:28:00.827Z,12.67
2018-03-31T18:30:26.861Z,12.61
2018-03-31T18:32:52.972Z,12.55
2018-03-31T18:35:22.127Z,12.51
2018-03-31T18:37:48.198Z,12.51
2018-03-31T18:40:14.280Z,12.39
2018-03-31T18:42:40.381Z,12.38
2018-03-31T18:45:06.517Z,12.29
2018-03-31T18:47:32.609Z,12.22
2018-03-31T18:49:58.810Z,12.16
2018-03-31T18:52:24.853Z,12.11
2018-03-31T18:54:50.991Z,12.00
2018-03-31T18:57:17.013Z,11.95
2018-03-31T18:59:43.037Z,11.92
2018-03-31T19:02:09.174Z,11.89
2018-03-31T19:04:35.289Z,11.84
2018-03-31T19:07:01.350Z,11.79
2018-03-31T19:09:27.382Z,11.78
2018-03-31T19:11:53.569Z,11.72
2018-03-31T19:14:19.593Z,11.70
2018-03-31T19:16:51.545Z,11.67
2018-03-31T19:19:17.629Z,11.64
2018-03-31T19:21:43.672Z,11.61
2018-03-31T19:24:09.718Z,11.60
2018-03-31T19:26:35.800Z,11.57
2018-03-31T19:29:01.841Z,11.53
2018-03-31T19:31:27.933Z,11.48
2018-03-31T19:33:54.078Z,11.45
2018-03-31T19:36:20.120Z,11.43
2018-03-31T19:38:46.138Z,11.44
2018-03-31T19:41:12.272Z,11.38
2018-03-31T19:43:38.308Z,11.38
2018-03-31T19:46:04.574Z,11.31
2018-03-31T19:48:30.607Z,11.29
2018-03-31T19:50:59.376Z,11.29
2018-03-31T19:53:25.675Z,11.24
2018-03-31T19:55:51.709Z,11.22
2018-03-31T19:58:17.730Z,11.19
2018-03-31T20:00:43.790Z,11.17
2018-03-31T20:03:09.819Z,11.16
2018-03-31T20:05:35.973Z,11.11
2018-03-31T20:08:02.102Z,11.05
2018-03-31T20:10:28.126Z,11.03
2018-03-31T20:12:54.224Z,11.00
2018-03-31T20:15:20.270Z,10.97
2018-03-31T20:17:46.292Z,11.00
2018-03-31T20:20:12.371Z,10.94
2018-03-31T20:22:38.406Z,10.95
2018-03-31T20:25:04.512Z,10.97
2018-03-31T20:27:30.544Z,10.93
2018-03-31T20:29:56.572Z,10.87
2018-03-31T20:32:22.725Z,10.86
2018-03-31T20:34:48.785Z,10.81
2018-03-31T20:37:14.830Z,10.77
2018-03-31T20:39:40.901Z,10.72
2018-03-31T20:42:06.918Z,10.72
2018-03-31T20:44:32.942Z,10.70
2018-03-31T20:46:59.067Z,10.68
2018-03-31T20:49:25.110Z,10.67
2018-03-31T20:51:52.214Z,10.66
2018-03-31T20:54:18.310Z,10.60
2018-03-31T20:56:44.342Z,10.60
2018-03-31T20:59:13.372Z,10.61
2018-03-31T21:01:39.422Z,10.62
2018-03-31T21:04:05.445Z,10.61
2018-03-31T21:06:31.472Z,10.60
2018-03-31T21:08:57.601Z,10.60
2018-03-31T21:11:23.632Z,10.61
2018-03-31T21:13:49.656Z,10.56
2018-03-31T21:16:15.724Z,10.58
2018-03-31T21:18:41.774Z,10.49
2018-03-31T21:21:07.812Z,10.50
2018-03-31T21:23:33.939Z,10.51
2018-03-31T21:26:00.101Z,10.47
2018-03-31T21:28:26.205Z,10.49
2018-03-31T21:30:52.245Z,10.46
2018-03-31T21:33:18.349Z,10.46
2018-03-31T21:35:44.432Z,10.46
2018-03-31T21:38:10.431Z,10.44
2018-03-31T21:40:36.543Z,10.43
2018-03-31T21:43:02.589Z,10.42
2018-03-31T21:45:28.621Z,10.35
2018-03-31T21:47:54.738Z,10.36
2018-03-31T21:50:20.964Z,10.36
2018-03-31T21:52:46.985Z,10.30
2018-03-31T21:55:13.228Z,10.29
2018-03-31T21:57:39.257Z,10.25
2018-03-31T22:00:05.280Z,10.25
2018-03-31T22:02:31.341Z,10.25
2018-03-31T22:04:57.359Z,10.18
2018-03-31T22:07:23.387Z,10.16
2018-03-31T22:09:49.490Z,10.12
2018-03-31T22:12:15.517Z,10.15
2018-03-31T22:17:43.653Z,10.06
2018-03-31T22:20:09.819Z,10.04
2018-03-31T22:22:35.940Z,10.01
2018-03-31T22:25:02.072Z,9.99
2018-03-31T22:27:28.113Z,10.01
2018-03-31T22:29:54.135Z,10.08
2018-03-31T22:32:20.322Z,10.06
2018-03-31T22:34:46.361Z,10.05
2018-03-31T22:37:12.412Z,10.03
2018-03-31T22:39:38.528Z,10.00
2018-03-31T22:42:04.520Z,9.97
2018-03-31T22:44:30.541Z,9.98
2018-03-31T22:46:56.657Z,9.97
2018-03-31T22:49:22.673Z,9.97
2018-03-31T22:51:48.696Z,9.92
2018-03-31T22:54:14.829Z,9.91
2018-03-31T22:56:40.912Z,9.92
2018-03-31T22:59:06.992Z,9.89
2018-03-31T23:01:33.253Z,9.92
2018-03-31T23:03:59.429Z,9.91
2018-03-31T23:06:25.766Z,9.89
2018-03-31T23:08:51.799Z,9.82
2018-03-31T23:11:17.882Z,9.81
2018-03-31T23:13:43.909Z,9.81
2018-03-31T23:16:09.926Z,9.76
2018-03-31T23:18:36.041Z,9.70
2018-03-31T23:21:02.117Z,9.70
2018-03-31T23:23:28.157Z,9.70
2018-03-31T23:25:57.387Z,9.69
2018-03-31T23:28:23.509Z,9.66
2018-03-31T23:30:49.517Z,9.67
2018-03-31T23:33:15.587Z,9.66
2018-03-31T23:35:41.646Z,9.68
2018-03-31T23:38:07.662Z,9.73
2018-03-31T23:40:33.692Z,9.67
2018-03-31T23:42:59.812Z,9.69
2018-03-31T23:45:26.072Z,9.72
2018-03-31T23:47:52.114Z,9.75
2018-03-31T23:50:18.168Z,9.74
2018-03-31T23:52:44.184Z,9.75
2018-03-31T23:55:10.202Z,9.67
2018-03-31T23:57:36.251Z,9.63
